sensor_id;sensor_type;location;lat;lon;timestamp;temperature;humidity
40434;DHT22;26146;51.114;5.654;2022-10-16T00:02:02;14.80;99.90
40434;DHT22;26146;51.114;5.654;2022-10-16T00:06:03;14.80;99.90
40434;DHT22;26146;51.114;5.654;2022-10-16T00:10:05;14.80;99.90
40434;DHT22;26146;51.114;5.654;2022-10-16T00:14:11;14.80;99.90
40434;DHT22;26146;51.114;5.654;2022-10-16T00:18:12;14.80;99.90
40434;DHT22;26146;51.114;5.654;2022-10-16T00:22:15;14.80;99.90
40434;DHT22;26146;51.114;5.654;2022-10-16T00:26:17;14.80;99.90
40434;DHT22;26146;51.114;5.654;2022-10-16T00:30:18;14.80;99.90
40434;DHT22;26146;51.114;5.654;2022-10-16T00:34:19;14.70;99.90
40434;DHT22;26146;51.114;5.654;2022-10-16T00:38:22;14.80;99.90
40434;DHT22;26146;51.114;5.654;2022-10-16T00:42:23;14.70;99.90
40434;DHT22;26146;51.114;5.654;2022-10-16T00:50:36;14.70;99.90
40434;DHT22;26146;51.114;5.654;2022-10-16T00:54:37;14.70;99.90
40434;DHT22;26146;51.114;5.654;2022-10-16T00:58:38;14.80;99.90
40434;DHT22;26146;51.114;5.654;2022-10-16T01:02:39;14.70;99.90
40434;DHT22;26146;51.114;5.654;2022-10-16T01:07:10;14.60;99.90
40434;DHT22;26146;51.114;5.654;2022-10-16T01:11:21;14.60;99.90
40434;DHT22;26146;51.114;5.654;2022-10-16T01:15:30;14.60;99.90
40434;DHT22;26146;51.114;5.654;2022-10-16T01:29:49;14.40;99.90
40434;DHT22;26146;51.114;5.654;2022-10-16T01:33:30;14.30;99.90
40434;DHT22;26146;51.114;5.654;2022-10-16T01:41:49;14.30;99.90
40434;DHT22;26146;51.114;5.654;2022-10-16T01:45:52;14.30;99.90
40434;DHT22;26146;51.114;5.654;2022-10-16T01:49:55;14.30;99.90
40434;DHT22;26146;51.114;5.654;2022-10-16T01:53:59;14.30;99.90
40434;DHT22;26146;51.114;5.654;2022-10-16T01:58:02;14.30;99.90
40434;DHT22;26146;51.114;5.654;2022-10-16T02:02:08;14.20;99.90
40434;DHT22;26146;51.114;5.654;2022-10-16T02:06:10;14.20;99.90
40434;DHT22;26146;51.114;5.654;2022-10-16T02:10:11;14.10;99.90
40434;DHT22;26146;51.114;5.654;2022-10-16T02:14:14;14.20;99.90
40434;DHT22;26146;51.114;5.654;2022-10-16T02:18:15;14.20;99.90
40434;DHT22;26146;51.114;5.654;2022-10-16T02:22:25;14.20;99.90
40434;DHT22;26146;51.114;5.654;2022-10-16T02:26:35;14.20;99.90
40434;DHT22;26146;51.114;5.654;2022-10-16T02:31:08;14.20;99.90
40434;DHT22;26146;51.114;5.654;2022-10-16T02:35:11;14.20;99.90
40434;DHT22;26146;51.114;5.654;2022-10-16T02:39:12;14.20;99.90
40434;DHT22;26146;51.114;5.654;2022-10-16T02:43:16;14.20;99.90
40434;DHT22;26146;51.114;5.654;2022-10-16T02:47:17;14.20;99.90
40434;DHT22;26146;51.114;5.654;2022-10-16T02:51:20;14.20;99.90
40434;DHT22;26146;51.114;5.654;2022-10-16T02:55:21;14.30;99.90
40434;DHT22;26146;51.114;5.654;2022-10-16T02:59:22;14.20;99.90
40434;DHT22;26146;51.114;5.654;2022-10-16T03:03:23;14.30;99.90
40434;DHT22;26146;51.114;5.654;2022-10-16T03:07:24;14.30;99.90
40434;DHT22;26146;51.114;5.654;2022-10-16T03:11:25;14.30;99.90
40434;DHT22;26146;51.114;5.654;2022-10-16T03:15:26;14.20;99.90
40434;DHT22;26146;51.114;5.654;2022-10-16T03:19:28;14.30;99.90
40434;DHT22;26146;51.114;5.654;2022-10-16T03:23:29;14.30;99.90
40434;DHT22;26146;51.114;5.654;2022-10-16T03:27:30;14.20;99.90
40434;DHT22;26146;51.114;5.654;2022-10-16T03:31:31;14.10;99.90
40434;DHT22;26146;51.114;5.654;2022-10-16T03:35:32;14.10;99.90
40434;DHT22;26146;51.114;5.654;2022-10-16T03:39:33;14.10;99.90
40434;DHT22;26146;51.114;5.654;2022-10-16T03:43:34;14.20;99.90
40434;DHT22;26146;51.114;5.654;2022-10-16T03:47:35;14.20;99.90
40434;DHT22;26146;51.114;5.654;2022-10-16T03:51:36;14.30;99.90
40434;DHT22;26146;51.114;5.654;2022-10-16T03:55:37;14.30;99.90
40434;DHT22;26146;51.114;5.654;2022-10-16T03:59:38;14.20;99.90
40434;DHT22;26146;51.114;5.654;2022-10-16T04:03:39;14.20;99.90
40434;DHT22;26146;51.114;5.654;2022-10-16T04:07:40;14.20;99.90
40434;DHT22;26146;51.114;5.654;2022-10-16T04:11:41;14.20;99.90
40434;DHT22;26146;51.114;5.654;2022-10-16T04:15:47;14.20;99.90
40434;DHT22;26146;51.114;5.654;2022-10-16T04:19:50;14.30;99.90
40434;DHT22;26146;51.114;5.654;2022-10-16T04:23:51;14.20;99.90
40434;DHT22;26146;51.114;5.654;2022-10-16T04:27:53;14.20;99.90
40434;DHT22;26146;51.114;5.654;2022-10-16T04:31:54;14.30;99.90
40434;DHT22;26146;51.114;5.654;2022-10-16T04:36:02;14.30;99.90
40434;DHT22;26146;51.114;5.654;2022-10-16T04:40:03;14.20;99.90
40434;DHT22;26146;51.114;5.654;2022-10-16T04:44:04;14.20;99.90
40434;DHT22;26146;51.114;5.654;2022-10-16T04:48:07;14.30;99.90
40434;DHT22;26146;51.114;5.654;2022-10-16T04:52:08;14.30;99.90
40434;DHT22;26146;51.114;5.654;2022-10-16T04:56:10;14.30;99.90
40434;DHT22;26146;51.114;5.654;2022-10-16T05:00:11;14.20;99.90
40434;DHT22;26146;51.114;5.654;2022-10-16T05:04:12;14.20;99.90
40434;DHT22;26146;51.114;5.654;2022-10-16T05:08:16;14.30;99.90
40434;DHT22;26146;51.114;5.654;2022-10-16T05:12:17;14.30;99.90
40434;DHT22;26146;51.114;5.654;2022-10-16T05:16:18;14.20;99.90
40434;DHT22;26146;51.114;5.654;2022-10-16T05:20:19;14.10;99.90
40434;DHT22;26146;51.114;5.654;2022-10-16T05:24:20;14.10;99.90
40434;DHT22;26146;51.114;5.654;2022-10-16T05:28:21;14.10;99.90
40434;DHT22;26146;51.114;5.654;2022-10-16T05:32:22;14.00;99.90
40434;DHT22;26146;51.114;5.654;2022-10-16T05:36:25;14.00;99.90
40434;DHT22;26146;51.114;5.654;2022-10-16T05:40:26;14.00;99.90
40434;DHT22;26146;51.114;5.654;2022-10-16T05:44:27;14.00;99.90
40434;DHT22;26146;51.114;5.654;2022-10-16T05:48:28;14.00;99.90
40434;DHT22;26146;51.114;5.654;2022-10-16T05:52:28;14.10;99.90
40434;DHT22;26146;51.114;5.654;2022-10-16T05:56:29;14.00;99.90
40434;DHT22;26146;51.114;5.654;2022-10-16T06:00:30;14.00;99.90
40434;DHT22;26146;51.114;5.654;2022-10-16T06:04:31;14.00;99.90
40434;DHT22;26146;51.114;5.654;2022-10-16T06:08:32;13.90;99.90
40434;DHT22;26146;51.114;5.654;2022-10-16T06:12:33;13.90;99.90
40434;DHT22;26146;51.114;5.654;2022-10-16T06:16:37;13.90;99.90
40434;DHT22;26146;51.114;5.654;2022-10-16T06:20:38;13.90;99.90
40434;DHT22;26146;51.114;5.654;2022-10-16T06:24:39;13.90;99.90
40434;DHT22;26146;51.114;5.654;2022-10-16T06:28:40;13.90;99.90
40434;DHT22;26146;51.114;5.654;2022-10-16T06:32:41;13.90;99.90
40434;DHT22;26146;51.114;5.654;2022-10-16T06:36:42;13.90;99.90
40434;DHT22;26146;51.114;5.654;2022-10-16T06:40:44;13.90;99.90
40434;DHT22;26146;51.114;5.654;2022-10-16T06:44:45;13.90;99.90
40434;DHT22;26146;51.114;5.654;2022-10-16T06:48:46;14.00;99.90
40434;DHT22;26146;51.114;5.654;2022-10-16T06:52:47;13.90;99.90
40434;DHT22;26146;51.114;5.654;2022-10-16T06:56:48;13.90;99.90
40434;DHT22;26146;51.114;5.654;2022-10-16T07:00:54;14.00;99.90
40434;DHT22;26146;51.114;5.654;2022-10-16T07:04:55;14.00;99.90
40434;DHT22;26146;51.114;5.654;2022-10-16T07:08:57;14.10;99.90
40434;DHT22;26146;51.114;5.654;2022-10-16T07:12:58;14.10;99.90
40434;DHT22;26146;51.114;5.654;2022-10-16T07:16:59;14.20;99.90
40434;DHT22;26146;51.114;5.654;2022-10-16T07:21:11;14.30;99.90
40434;DHT22;26146;51.114;5.654;2022-10-16T07:25:12;14.40;99.90
40434;DHT22;26146;51.114;5.654;2022-10-16T07:29:16;14.50;99.90
40434;DHT22;26146;51.114;5.654;2022-10-16T07:33:17;14.60;99.90
40434;DHT22;26146;51.114;5.654;2022-10-16T07:37:19;14.80;99.90
40434;DHT22;26146;51.114;5.654;2022-10-16T07:41:20;14.90;99.90
40434;DHT22;26146;51.114;5.654;2022-10-16T07:45:20;14.90;99.90
40434;DHT22;26146;51.114;5.654;2022-10-16T07:49:21;15.10;99.90
40434;DHT22;26146;51.114;5.654;2022-10-16T07:53:22;15.30;99.90
40434;DHT22;26146;51.114;5.654;2022-10-16T07:57:23;15.50;99.90
40434;DHT22;26146;51.114;5.654;2022-10-16T08:01:24;15.40;99.90
40434;DHT22;26146;51.114;5.654;2022-10-16T08:05:28;15.50;99.90
40434;DHT22;26146;51.114;5.654;2022-10-16T08:09:29;15.80;99.90
40434;DHT22;26146;51.114;5.654;2022-10-16T08:13:30;15.80;99.90
40434;DHT22;26146;51.114;5.654;2022-10-16T08:17:33;15.90;99.90
40434;DHT22;26146;51.114;5.654;2022-10-16T08:21:34;16.00;99.90
40434;DHT22;26146;51.114;5.654;2022-10-16T08:25:36;16.10;99.90
40434;DHT22;26146;51.114;5.654;2022-10-16T08:29:37;16.20;99.90
40434;DHT22;26146;51.114;5.654;2022-10-16T08:33:41;16.30;99.90
40434;DHT22;26146;51.114;5.654;2022-10-16T08:37:42;16.40;99.90
40434;DHT22;26146;51.114;5.654;2022-10-16T08:50:12;16.70;99.90
40434;DHT22;26146;51.114;5.654;2022-10-16T08:54:39;16.80;99.90
40434;DHT22;26146;51.114;5.654;2022-10-16T08:58:42;17.00;99.90
40434;DHT22;26146;51.114;5.654;2022-10-16T09:07:26;17.10;99.90
40434;DHT22;26146;51.114;5.654;2022-10-16T09:15:53;17.40;99.90
40434;DHT22;26146;51.114;5.654;2022-10-16T09:24:31;17.60;99.90
40434;DHT22;26146;51.114;5.654;2022-10-16T09:28:32;17.80;99.90
40434;DHT22;26146;51.114;5.654;2022-10-16T09:32:33;17.80;99.90
40434;DHT22;26146;51.114;5.654;2022-10-16T09:36:40;18.00;99.90
40434;DHT22;26146;51.114;5.654;2022-10-16T09:40:42;18.10;99.90
40434;DHT22;26146;51.114;5.654;2022-10-16T09:44:47;18.00;99.90
40434;DHT22;26146;51.114;5.654;2022-10-16T09:48:50;18.00;99.90
40434;DHT22;26146;51.114;5.654;2022-10-16T09:53:18;17.90;99.90
40434;DHT22;26146;51.114;5.654;2022-10-16T09:57:23;17.90;99.90
40434;DHT22;26146;51.114;5.654;2022-10-16T10:01:45;17.90;99.90
40434;DHT22;26146;51.114;5.654;2022-10-16T10:05:48;18.00;99.90
40434;DHT22;26146;51.114;5.654;2022-10-16T10:09:50;18.20;99.90
40434;DHT22;26146;51.114;5.654;2022-10-16T10:13:51;18.20;99.90
40434;DHT22;26146;51.114;5.654;2022-10-16T10:17:56;18.30;99.90
40434;DHT22;26146;51.114;5.654;2022-10-16T10:21:58;18.30;99.90
40434;DHT22;26146;51.114;5.654;2022-10-16T10:26:15;18.40;99.90
40434;DHT22;26146;51.114;5.654;2022-10-16T10:35:13;18.50;99.90
40434;DHT22;26146;51.114;5.654;2022-10-16T10:39:32;18.70;99.90
40434;DHT22;26146;51.114;5.654;2022-10-16T10:48:17;18.90;99.90
40434;DHT22;26146;51.114;5.654;2022-10-16T11:13:28;20.80;99.90
40434;DHT22;26146;51.114;5.654;2022-10-16T11:17:47;20.60;99.90
40434;DHT22;26146;51.114;5.654;2022-10-16T11:22:17;20.70;99.90
40434;DHT22;26146;51.114;5.654;2022-10-16T11:26:21;20.50;99.90
40434;DHT22;26146;51.114;5.654;2022-10-16T11:30:39;20.40;99.90
40434;DHT22;26146;51.114;5.654;2022-10-16T11:34:47;20.20;99.90
40434;DHT22;26146;51.114;5.654;2022-10-16T11:38:51;20.20;99.90
40434;DHT22;26146;51.114;5.654;2022-10-16T11:51:51;20.60;99.90
40434;DHT22;26146;51.114;5.654;2022-10-16T11:55:59;20.50;99.90
40434;DHT22;26146;51.114;5.654;2022-10-16T12:00:08;20.60;99.90
40434;DHT22;26146;51.114;5.654;2022-10-16T12:04:29;20.60;99.90
40434;DHT22;26146;51.114;5.654;2022-10-16T12:08:35;20.60;99.90
40434;DHT22;26146;51.114;5.654;2022-10-16T12:12:39;20.50;99.90
40434;DHT22;26146;51.114;5.654;2022-10-16T12:20:58;20.70;99.90
40434;DHT22;26146;51.114;5.654;2022-10-16T12:25:22;20.80;99.90
40434;DHT22;26146;51.114;5.654;2022-10-16T12:33:40;20.50;99.90
40434;DHT22;26146;51.114;5.654;2022-10-16T12:37:42;20.80;99.90
40434;DHT22;26146;51.114;5.654;2022-10-16T12:41:44;21.10;99.80
40434;DHT22;26146;51.114;5.654;2022-10-16T12:45:45;21.00;99.90
40434;DHT22;26146;51.114;5.654;2022-10-16T12:49:54;20.80;99.90
40434;DHT22;26146;51.114;5.654;2022-10-16T12:54:17;20.70;99.90
40434;DHT22;26146;51.114;5.654;2022-10-16T13:06:56;21.30;99.80
40434;DHT22;26146;51.114;5.654;2022-10-16T13:15:44;21.60;99.80
40434;DHT22;26146;51.114;5.654;2022-10-16T13:28:13;21.70;99.10
40434;DHT22;26146;51.114;5.654;2022-10-16T13:32:15;21.70;98.80
40434;DHT22;26146;51.114;5.654;2022-10-16T13:36:43;21.60;98.80
40434;DHT22;26146;51.114;5.654;2022-10-16T13:44:55;21.60;99.70
40434;DHT22;26146;51.114;5.654;2022-10-16T13:49:04;21.50;99.70
40434;DHT22;26146;51.114;5.654;2022-10-16T13:53:06;21.50;99.90
40434;DHT22;26146;51.114;5.654;2022-10-16T13:57:11;21.30;99.90
40434;DHT22;26146;51.114;5.654;2022-10-16T14:01:26;21.30;99.90
40434;DHT22;26146;51.114;5.654;2022-10-16T14:05:28;21.30;99.90
40434;DHT22;26146;51.114;5.654;2022-10-16T14:09:30;21.30;99.90
40434;DHT22;26146;51.114;5.654;2022-10-16T14:13:38;21.20;99.90
40434;DHT22;26146;51.114;5.654;2022-10-16T14:17:44;21.10;99.90
40434;DHT22;26146;51.114;5.654;2022-10-16T14:21:46;21.10;99.90
40434;DHT22;26146;51.114;5.654;2022-10-16T14:25:47;21.10;99.90
40434;DHT22;26146;51.114;5.654;2022-10-16T14:29:48;21.10;99.90
40434;DHT22;26146;51.114;5.654;2022-10-16T14:33:49;21.10;99.90
40434;DHT22;26146;51.114;5.654;2022-10-16T14:37:54;21.10;99.90
40434;DHT22;26146;51.114;5.654;2022-10-16T14:41:57;21.30;99.90
40434;DHT22;26146;51.114;5.654;2022-10-16T14:45:58;21.10;99.90
40434;DHT22;26146;51.114;5.654;2022-10-16T14:49:59;21.20;99.90
40434;DHT22;26146;51.114;5.654;2022-10-16T14:54:00;20.90;99.90
40434;DHT22;26146;51.114;5.654;2022-10-16T14:58:02;20.70;99.90
40434;DHT22;26146;51.114;5.654;2022-10-16T15:06:16;20.60;99.90
40434;DHT22;26146;51.114;5.654;2022-10-16T15:10:18;20.50;99.90
40434;DHT22;26146;51.114;5.654;2022-10-16T15:14:22;20.40;99.90
40434;DHT22;26146;51.114;5.654;2022-10-16T15:18:23;20.40;99.90
40434;DHT22;26146;51.114;5.654;2022-10-16T15:22:24;20.30;99.90
40434;DHT22;26146;51.114;5.654;2022-10-16T15:26:26;20.20;99.90
40434;DHT22;26146;51.114;5.654;2022-10-16T15:30:28;20.10;99.90
40434;DHT22;26146;51.114;5.654;2022-10-16T15:34:28;19.90;99.90
40434;DHT22;26146;51.114;5.654;2022-10-16T15:38:30;19.80;99.90
40434;DHT22;26146;51.114;5.654;2022-10-16T15:42:31;19.80;99.90
40434;DHT22;26146;51.114;5.654;2022-10-16T15:46:32;19.80;99.90
40434;DHT22;26146;51.114;5.654;2022-10-16T15:50:37;19.90;99.90
40434;DHT22;26146;51.114;5.654;2022-10-16T15:54:38;19.60;99.90
40434;DHT22;26146;51.114;5.654;2022-10-16T15:58:39;19.60;99.90
40434;DHT22;26146;51.114;5.654;2022-10-16T16:02:41;19.60;99.90
40434;DHT22;26146;51.114;5.654;2022-10-16T16:06:42;19.30;99.90
40434;DHT22;26146;51.114;5.654;2022-10-16T16:10:45;19.20;99.90
40434;DHT22;26146;51.114;5.654;2022-10-16T16:14:47;19.10;99.90
40434;DHT22;26146;51.114;5.654;2022-10-16T16:18:52;19.00;99.90
40434;DHT22;26146;51.114;5.654;2022-10-16T16:22:56;19.10;99.90
40434;DHT22;26146;51.114;5.654;2022-10-16T16:26:57;19.10;99.90
40434;DHT22;26146;51.114;5.654;2022-10-16T16:30:58;18.90;99.90
40434;DHT22;26146;51.114;5.654;2022-10-16T16:34:59;18.90;99.90
40434;DHT22;26146;51.114;5.654;2022-10-16T16:39:02;18.80;99.90
40434;DHT22;26146;51.114;5.654;2022-10-16T16:43:03;18.60;99.90
40434;DHT22;26146;51.114;5.654;2022-10-16T16:47:05;18.50;99.90
40434;DHT22;26146;51.114;5.654;2022-10-16T16:51:13;18.40;99.90
40434;DHT22;26146;51.114;5.654;2022-10-16T16:55:16;18.40;99.90
40434;DHT22;26146;51.114;5.654;2022-10-16T16:59:19;18.30;99.90
40434;DHT22;26146;51.114;5.654;2022-10-16T17:03:20;18.20;99.90
40434;DHT22;26146;51.114;5.654;2022-10-16T17:07:21;18.30;99.90
40434;DHT22;26146;51.114;5.654;2022-10-16T17:11:25;18.20;99.90
40434;DHT22;26146;51.114;5.654;2022-10-16T17:15:26;18.20;99.90
40434;DHT22;26146;51.114;5.654;2022-10-16T17:19:27;18.10;99.90
40434;DHT22;26146;51.114;5.654;2022-10-16T17:23:28;18.00;99.90
40434;DHT22;26146;51.114;5.654;2022-10-16T17:27:29;18.00;99.90
40434;DHT22;26146;51.114;5.654;2022-10-16T17:31:32;18.00;99.90
40434;DHT22;26146;51.114;5.654;2022-10-16T17:35:41;17.80;99.90
40434;DHT22;26146;51.114;5.654;2022-10-16T17:39:42;17.90;99.90
40434;DHT22;26146;51.114;5.654;2022-10-16T17:43:43;17.80;99.90
40434;DHT22;26146;51.114;5.654;2022-10-16T17:47:44;17.80;99.90
40434;DHT22;26146;51.114;5.654;2022-10-16T17:51:47;17.80;99.90
40434;DHT22;26146;51.114;5.654;2022-10-16T17:55:49;17.70;99.90
40434;DHT22;26146;51.114;5.654;2022-10-16T17:59:56;17.70;99.90
40434;DHT22;26146;51.114;5.654;2022-10-16T18:08:02;17.70;99.90
40434;DHT22;26146;51.114;5.654;2022-10-16T18:12:03;17.70;99.90
40434;DHT22;26146;51.114;5.654;2022-10-16T18:16:07;17.60;99.90
40434;DHT22;26146;51.114;5.654;2022-10-16T18:20:11;17.60;99.90
40434;DHT22;26146;51.114;5.654;2022-10-16T18:24:12;17.50;99.90
40434;DHT22;26146;51.114;5.654;2022-10-16T18:28:16;17.40;99.90
40434;DHT22;26146;51.114;5.654;2022-10-16T18:32:17;17.30;99.90
40434;DHT22;26146;51.114;5.654;2022-10-16T18:36:21;17.20;99.90
40434;DHT22;26146;51.114;5.654;2022-10-16T18:40:22;17.20;99.90
40434;DHT22;26146;51.114;5.654;2022-10-16T18:44:23;17.20;99.90
40434;DHT22;26146;51.114;5.654;2022-10-16T18:48:24;17.10;99.90
40434;DHT22;26146;51.114;5.654;2022-10-16T18:52:29;17.10;99.90
40434;DHT22;26146;51.114;5.654;2022-10-16T18:56:31;17.00;99.90
40434;DHT22;26146;51.114;5.654;2022-10-16T19:00:33;17.00;99.90
40434;DHT22;26146;51.114;5.654;2022-10-16T19:04:34;17.00;99.90
40434;DHT22;26146;51.114;5.654;2022-10-16T19:08:36;17.00;99.90
40434;DHT22;26146;51.114;5.654;2022-10-16T19:12:38;16.90;99.90
40434;DHT22;26146;51.114;5.654;2022-10-16T19:16:40;16.90;99.90
40434;DHT22;26146;51.114;5.654;2022-10-16T19:20:42;16.90;99.90
40434;DHT22;26146;51.114;5.654;2022-10-16T19:24:43;16.80;99.90
40434;DHT22;26146;51.114;5.654;2022-10-16T19:28:45;16.80;99.90
40434;DHT22;26146;51.114;5.654;2022-10-16T19:32:46;16.80;99.90
40434;DHT22;26146;51.114;5.654;2022-10-16T19:36:51;16.70;99.90
40434;DHT22;26146;51.114;5.654;2022-10-16T19:40:53;16.70;99.90
40434;DHT22;26146;51.114;5.654;2022-10-16T19:44:54;16.60;99.90
40434;DHT22;26146;51.114;5.654;2022-10-16T19:48:57;16.70;99.90
40434;DHT22;26146;51.114;5.654;2022-10-16T19:52:58;16.70;99.90
40434;DHT22;26146;51.114;5.654;2022-10-16T19:56:59;16.70;99.90
40434;DHT22;26146;51.114;5.654;2022-10-16T20:01:01;17.00;99.90
40434;DHT22;26146;51.114;5.654;2022-10-16T20:05:02;17.10;99.90
40434;DHT22;26146;51.114;5.654;2022-10-16T20:09:03;17.10;99.90
40434;DHT22;26146;51.114;5.654;2022-10-16T20:13:04;16.90;99.90
40434;DHT22;26146;51.114;5.654;2022-10-16T20:17:07;16.80;99.90
40434;DHT22;26146;51.114;5.654;2022-10-16T20:21:14;16.70;99.90
40434;DHT22;26146;51.114;5.654;2022-10-16T20:25:15;16.60;99.90
40434;DHT22;26146;51.114;5.654;2022-10-16T20:29:16;16.50;99.90
40434;DHT22;26146;51.114;5.654;2022-10-16T20:33:17;16.50;99.90
40434;DHT22;26146;51.114;5.654;2022-10-16T20:37:20;16.60;99.90
40434;DHT22;26146;51.114;5.654;2022-10-16T20:41:25;16.50;99.90
40434;DHT22;26146;51.114;5.654;2022-10-16T20:45:26;16.40;99.90
40434;DHT22;26146;51.114;5.654;2022-10-16T20:49:27;16.30;99.90
40434;DHT22;26146;51.114;5.654;2022-10-16T20:53:31;16.30;99.90
40434;DHT22;26146;51.114;5.654;2022-10-16T20:57:31;16.20;99.90
40434;DHT22;26146;51.114;5.654;2022-10-16T21:01:33;16.30;99.90
40434;DHT22;26146;51.114;5.654;2022-10-16T21:05:40;16.20;99.90
40434;DHT22;26146;51.114;5.654;2022-10-16T21:09:41;16.10;99.90
40434;DHT22;26146;51.114;5.654;2022-10-16T21:13:42;16.10;99.90
40434;DHT22;26146;51.114;5.654;2022-10-16T21:17:43;16.20;99.90
40434;DHT22;26146;51.114;5.654;2022-10-16T21:21:44;16.10;99.90
40434;DHT22;26146;51.114;5.654;2022-10-16T21:25:51;16.10;99.90
40434;DHT22;26146;51.114;5.654;2022-10-16T21:29:52;16.00;99.90
40434;DHT22;26146;51.114;5.654;2022-10-16T21:33:54;16.00;99.90
40434;DHT22;26146;51.114;5.654;2022-10-16T21:37:56;16.00;99.90
40434;DHT22;26146;51.114;5.654;2022-10-16T21:41:57;15.90;99.90
40434;DHT22;26146;51.114;5.654;2022-10-16T21:45:58;15.80;99.90
40434;DHT22;26146;51.114;5.654;2022-10-16T21:49:58;15.70;99.90
40434;DHT22;26146;51.114;5.654;2022-10-16T21:54:01;15.60;99.90
40434;DHT22;26146;51.114;5.654;2022-10-16T21:58:02;15.60;99.90
40434;DHT22;26146;51.114;5.654;2022-10-16T22:02:03;15.50;99.90
40434;DHT22;26146;51.114;5.654;2022-10-16T22:06:07;15.60;99.90
40434;DHT22;26146;51.114;5.654;2022-10-16T22:10:08;15.50;99.90
40434;DHT22;26146;51.114;5.654;2022-10-16T22:14:15;15.70;99.90
40434;DHT22;26146;51.114;5.654;2022-10-16T22:18:16;16.00;99.90
40434;DHT22;26146;51.114;5.654;2022-10-16T22:22:19;16.00;99.90
40434;DHT22;26146;51.114;5.654;2022-10-16T22:26:21;15.90;99.90
40434;DHT22;26146;51.114;5.654;2022-10-16T22:30:21;15.90;99.90
40434;DHT22;26146;51.114;5.654;2022-10-16T22:34:22;16.10;99.90
40434;DHT22;26146;51.114;5.654;2022-10-16T22:38:23;16.00;99.90
40434;DHT22;26146;51.114;5.654;2022-10-16T22:42:24;16.10;99.90
40434;DHT22;26146;51.114;5.654;2022-10-16T22:46:27;16.00;99.90
40434;DHT22;26146;51.114;5.654;2022-10-16T22:50:29;16.00;99.90
40434;DHT22;26146;51.114;5.654;2022-10-16T22:54:30;15.90;99.90
40434;DHT22;26146;51.114;5.654;2022-10-16T22:58:31;15.90;99.90
40434;DHT22;26146;51.114;5.654;2022-10-16T23:02:32;15.90;99.90
40434;DHT22;26146;51.114;5.654;2022-10-16T23:06:33;15.80;99.90
40434;DHT22;26146;51.114;5.654;2022-10-16T23:10:38;15.80;99.90
40434;DHT22;26146;51.114;5.654;2022-10-16T23:14:39;15.70;99.90
40434;DHT22;26146;51.114;5.654;2022-10-16T23:18:41;15.60;99.90
40434;DHT22;26146;51.114;5.654;2022-10-16T23:22:42;15.70;99.90
40434;DHT22;26146;51.114;5.654;2022-10-16T23:26:43;15.60;99.90
40434;DHT22;26146;51.114;5.654;2022-10-16T23:30:44;15.60;99.90
40434;DHT22;26146;51.114;5.654;2022-10-16T23:34:45;15.40;99.90
40434;DHT22;26146;51.114;5.654;2022-10-16T23:38:47;15.50;99.90
40434;DHT22;26146;51.114;5.654;2022-10-16T23:42:49;15.50;99.90
40434;DHT22;26146;51.114;5.654;2022-10-16T23:46:49;15.40;99.90
40434;DHT22;26146;51.114;5.654;2022-10-16T23:50:50;15.40;99.90
40434;DHT22;26146;51.114;5.654;2022-10-16T23:54:51;15.40;99.90
40434;DHT22;26146;51.114;5.654;2022-10-16T23:58:52;15.40;99.90
